Time;durP1;ratioP1;P1;durP2;ratioP2;P2;SDS_P1;SDS_P2;PMS_P1;PMS_P2;Temp;Humidity;BMP_temperature;BMP_pressure;BME280_temperature;BME280_humidity;BME280_pressure;Samples;Min_cycle;Max_cycle;Signal;HPM_P1;HPM_P2
2022/02/20 00:01:07;;;;;;;2.88;1.88;;;4.20;99.90;;;;;;5032850;28;20198;-59
2022/02/20 00:03:34;;;;;;;1.65;1.30;;;4.20;99.90;;;;;;5058336;22;20317;-61
2022/02/20 00:06:03;;;;;;;3.55;1.65;;;4.20;99.90;;;;;;5054348;28;20681;-61
2022/02/20 00:08:30;;;;;;;1.55;1.30;;;4.20;99.90;;;;;;5053999;28;20201;-61
2022/02/20 00:10:57;;;;;;;1.77;1.20;;;4.20;99.90;;;;;;5053460;28;20216;-62
2022/02/20 00:13:24;;;;;;;1.23;1.00;;;4.30;99.90;;;;;;5054292;28;20202;-62
2022/02/20 00:15:51;;;;;;;2.17;1.20;;;4.20;99.90;;;;;;5054002;28;20212;-61
2022/02/20 00:18:18;;;;;;;1.75;1.40;;;4.20;99.90;;;;;;5054896;28;20213;-61
2022/02/20 00:20:46;;;;;;;1.25;1.05;;;4.20;99.90;;;;;;5070351;28;20215;-61
2022/02/20 00:23:16;;;;;;;3.88;1.17;;;4.20;99.90;;;;;;5070997;28;20208;-61
2022/02/20 00:25:44;;;;;;;2.05;1.05;;;4.20;99.90;;;;;;5073079;28;20228;-61
2022/02/20 00:28:11;;;;;;;1.33;1.23;;;4.20;99.90;;;;;;5069345;28;20205;-61
2022/02/20 00:30:39;;;;;;;1.20;1.10;;;4.20;99.90;;;;;;5057506;28;20216;-60
2022/02/20 00:33:06;;;;;;;1.73;0.85;;;4.20;99.90;;;;;;5057458;28;20208;-61
2022/02/20 00:35:34;;;;;;;2.78;1.25;;;4.20;99.90;;;;;;5057247;28;20233;-59
2022/02/20 00:38:02;;;;;;;2.75;1.00;;;4.20;99.90;;;;;;5056862;28;20743;-61
2022/02/20 00:40:31;;;;;;;3.95;1.10;;;4.20;99.90;;;;;;5056694;28;20743;-61
2022/02/20 00:42:59;;;;;;;1.50;1.05;;;4.20;99.90;;;;;;5057307;28;20252;-61
2022/02/20 00:45:26;;;;;;;1.25;1.10;;;4.20;99.90;;;;;;5057308;28;20221;-61
2022/02/20 00:47:54;;;;;;;2.50;1.15;;;4.10;99.90;;;;;;5057051;28;20202;-61
2022/02/20 00:50:21;;;;;;;1.15;1.05;;;4.10;99.90;;;;;;5056686;28;20212;-62
2022/02/20 00:52:48;;;;;;;1.17;1.08;;;4.20;99.90;;;;;;5056685;28;20216;-61
2022/02/20 00:55:15;;;;;;;1.25;1.00;;;4.20;99.90;;;;;;5056262;28;20232;-60
2022/02/20 00:57:44;;;;;;;2.08;1.40;;;4.20;99.90;;;;;;5056382;28;20262;-61
2022/02/20 01:00:13;;;;;;;1.30;1.20;;;4.20;99.90;;;;;;5059099;28;20243;-61
2022/02/20 01:02:41;;;;;;;1.38;1.20;;;4.20;99.90;;;;;;5059040;28;20198;-61
2022/02/20 01:05:09;;;;;;;1.20;1.10;;;4.20;99.90;;;;;;5057919;28;20229;-61
2022/02/20 01:07:37;;;;;;;1.60;1.50;;;4.20;99.90;;;;;;5058475;28;20205;-61
2022/02/20 01:10:06;;;;;;;1.45;1.35;;;4.30;99.90;;;;;;5058384;28;20201;-62
2022/02/20 01:26:02;;;;;;;2.28;1.30;;;4.50;99.90;;;;;;5056647;28;20165;-61
2022/02/20 01:28:29;;;;;;;1.23;1.10;;;4.50;99.90;;;;;;5056080;28;20284;-61
2022/02/20 01:30:56;;;;;;;1.45;1.10;;;4.50;99.90;;;;;;5056317;28;20198;-60
2022/02/20 01:33:23;;;;;;;2.08;1.55;;;4.60;99.90;;;;;;5055874;28;20209;-60
2022/02/20 01:35:50;;;;;;;2.13;1.30;;;4.60;99.90;;;;;;5054964;28;20693;-60
2022/02/20 01:38:17;;;;;;;1.58;1.48;;;4.60;99.90;;;;;;5055806;28;20237;-61
2022/02/20 01:40:44;;;;;;;1.50;1.40;;;4.60;99.90;;;;;;5055965;28;20202;-61
2022/02/20 01:43:13;;;;;;;3.25;1.42;;;4.70;99.90;;;;;;5055863;28;20228;-61
2022/02/20 01:45:40;;;;;;;1.70;1.60;;;4.70;99.90;;;;;;5055851;28;20252;-62
2022/02/20 01:48:07;;;;;;;2.30;1.70;;;4.80;99.90;;;;;;5056019;28;20202;-62
2022/02/20 01:50:35;;;;;;;1.83;1.73;;;4.80;99.90;;;;;;5055697;28;20202;-62
2022/02/20 01:53:02;;;;;;;2.95;2.30;;;4.90;99.90;;;;;;5055316;28;20209;-62
2022/02/20 01:55:29;;;;;;;2.40;2.10;;;4.90;99.90;;;;;;5055204;28;20229;-60
2022/02/20 01:57:56;;;;;;;2.22;2.03;;;5.00;99.90;;;;;;5055626;28;20209;-62
2022/02/20 02:00:25;;;;;;;3.15;2.85;;;5.00;99.90;;;;;;5055936;28;20213;-62
2022/02/20 02:02:52;;;;;;;3.35;2.63;;;5.00;99.90;;;;;;5055905;28;20205;-62
2022/02/20 02:05:19;;;;;;;3.08;2.50;;;5.10;99.90;;;;;;5055299;28;20236;-62
2022/02/20 02:07:46;;;;;;;6.10;2.95;;;5.10;99.90;;;;;;5055400;28;20665;-62
2022/02/20 02:10:13;;;;;;;3.63;3.33;;;5.20;99.90;;;;;;5055060;28;20209;-62
2022/02/20 02:12:40;;;;;;;4.50;3.38;;;5.20;99.90;;;;;;5055353;28;20224;-62
2022/02/20 02:15:09;;;;;;;4.28;3.60;;;5.30;99.90;;;;;;5054960;28;20228;-62
2022/02/20 02:17:38;;;;;;;4.10;3.70;;;5.30;99.90;;;;;;5057636;28;20213;-62
2022/02/20 02:20:08;;;;;;;3.50;3.20;;;5.40;99.90;;;;;;5057976;28;20220;-63
2022/02/20 02:22:36;;;;;;;5.43;4.20;;;5.40;99.90;;;;;;5055070;28;20198;-61
2022/02/20 02:25:05;;;;;;;6.65;4.82;;;5.50;99.90;;;;;;5054969;28;20225;-62
2022/02/20 02:27:32;;;;;;;4.43;3.50;;;5.50;99.90;;;;;;5054830;28;20213;-62
2022/02/20 02:30:02;;;;;;;4.43;4.03;;;5.50;99.90;;;;;;5055661;28;20216;-62
2022/02/20 02:32:29;;;;;;;4.53;4.13;;;5.50;99.90;;;;;;5054412;28;20202;-60
2022/02/20 02:34:56;;;;;;;5.30;4.80;;;5.50;99.90;;;;;;5054290;28;20228;-61
2022/02/20 02:37:23;;;;;;;5.40;4.15;;;5.50;99.90;;;;;;5055095;28;20205;-61
2022/02/20 02:39:52;;;;;;;4.85;4.38;;;5.50;99.90;;;;;;5063311;28;20213;-62
2022/02/20 02:42:19;;;;;;;4.45;4.05;;;5.50;99.90;;;;;;5061219;28;20201;-61
2022/02/20 02:44:46;;;;;;;5.15;4.65;;;5.50;99.90;;;;;;5058751;28;20705;-62
2022/02/20 02:47:13;;;;;;;5.95;5.45;;;5.50;99.90;;;;;;5054653;28;20576;-61
2022/02/20 02:49:40;;;;;;;5.20;4.70;;;5.50;99.90;;;;;;5053843;28;20209;-62
2022/02/20 02:52:08;;;;;;;6.53;4.97;;;5.50;99.90;;;;;;5057412;28;20202;-62
2022/02/20 02:54:35;;;;;;;6.70;5.70;;;5.50;99.90;;;;;;5072782;28;20229;-63
2022/02/20 02:57:04;;;;;;;8.13;5.10;;;5.50;99.90;;;;;;5057728;28;20202;-61
2022/02/20 02:59:31;;;;;;;5.63;4.82;;;5.50;99.90;;;;;;5054632;28;20208;-62
2022/02/20 03:02:03;;;;;;;6.10;4.07;;;5.50;99.90;;;;;;5054370;28;20206;-62
2022/02/20 03:04:30;;;;;;;5.72;4.78;;;5.50;99.90;;;;;;5054511;28;20232;-62
2022/02/20 03:06:57;;;;;;;4.57;3.85;;;5.50;99.90;;;;;;5054479;28;20228;-62
2022/02/20 03:09:25;;;;;;;5.68;4.82;;;5.50;99.90;;;;;;5054667;28;20205;-62
2022/02/20 03:11:52;;;;;;;5.25;4.75;;;5.50;99.90;;;;;;5054081;28;20202;-62
2022/02/20 03:14:20;;;;;;;5.75;4.40;;;5.50;99.90;;;;;;5053985;28;20221;-62
2022/02/20 03:16:48;;;;;;;6.25;5.00;;;5.50;99.90;;;;;;5053944;28;20197;-62
2022/02/20 03:19:15;;;;;;;5.28;4.55;;;5.40;99.90;;;;;;5054256;28;20206;-63
2022/02/20 03:21:42;;;;;;;7.03;5.20;;;5.50;99.90;;;;;;5054113;28;20202;-62
2022/02/20 03:24:10;;;;;;;6.18;4.57;;;5.40;99.90;;;;;;5053637;28;20255;-62
2022/02/20 03:26:37;;;;;;;6.35;4.55;;;5.40;99.90;;;;;;5053730;28;20681;-62
2022/02/20 03:29:04;;;;;;;7.07;5.75;;;5.40;99.90;;;;;;5054405;28;20678;-62
2022/02/20 03:31:34;;;;;;;9.23;4.50;;;5.40;99.90;;;;;;5054356;28;20678;-62
2022/02/20 03:34:01;;;;;;;8.57;4.30;;;5.40;99.90;;;;;;5053871;28;20225;-62
2022/02/20 03:36:31;;;;;;;6.55;4.45;;;5.40;99.90;;;;;;5055118;28;20232;-62
2022/02/20 03:38:58;;;;;;;5.60;3.38;;;5.30;99.90;;;;;;5054242;28;20202;-62
2022/02/20 03:41:25;;;;;;;5.32;4.82;;;5.30;99.90;;;;;;5053608;28;20202;-60
2022/02/20 03:43:52;;;;;;;5.15;4.65;;;5.30;99.90;;;;;;5054503;28;20217;-62
2022/02/20 03:46:19;;;;;;;4.28;3.53;;;5.30;99.90;;;;;;5054779;28;20198;-63
2022/02/20 03:48:48;;;;;;;4.68;4.25;;;5.20;99.90;;;;;;5055117;28;20209;-63
2022/02/20 03:51:15;;;;;;;5.40;4.38;;;5.20;99.90;;;;;;5055433;28;20202;-63
2022/02/20 03:53:42;;;;;;;4.53;3.60;;;5.20;99.90;;;;;;5054617;28;20214;-64
2022/02/20 03:56:10;;;;;;;5.38;4.35;;;5.10;99.90;;;;;;5060156;28;20218;-63
2022/02/20 03:58:37;;;;;;;6.90;5.00;;;5.10;99.90;;;;;;5066784;28;20209;-63
2022/02/20 04:01:04;;;;;;;5.97;4.57;;;5.10;99.90;;;;;;5056433;28;20201;-62
2022/02/20 04:03:31;;;;;;;5.60;5.10;;;5.00;99.90;;;;;;5054312;28;20661;-63
2022/02/20 04:09:20;;;;;;;8.65;5.60;;;4.90;99.90;;;;;;5095886;27;21065;-63
2022/02/20 04:11:47;;;;;;;6.40;5.28;;;4.90;99.90;;;;;;5094569;28;20196;-63
2022/02/20 04:14:14;;;;;;;8.13;6.30;;;4.90;99.90;;;;;;5093017;28;20215;-62
2022/02/20 04:16:41;;;;;;;6.65;6.00;;;4.90;99.90;;;;;;5097366;28;20208;-63
2022/02/20 04:19:09;;;;;;;8.90;6.40;;;4.90;99.90;;;;;;5098227;28;20196;-63
2022/02/20 04:24:04;;;;;;;10.90;8.63;;;4.90;99.90;;;;;;5029376;28;20278;-59
2022/02/20 04:26:32;;;;;;;8.27;7.03;;;4.90;99.90;;;;;;5030795;28;20547;-59
2022/02/20 04:28:59;;;;;;;9.27;7.72;;;4.90;99.90;;;;;;5029957;28;20214;-59
2022/02/20 04:31:27;;;;;;;10.70;7.88;;;4.90;99.90;;;;;;5030311;28;20206;-59
2022/02/20 04:33:57;;;;;;;9.50;6.72;;;4.90;99.90;;;;;;5030045;28;20650;-59
2022/02/20 04:36:24;;;;;;;12.57;7.93;;;4.90;99.90;;;;;;5030576;28;20341;-59
2022/02/20 04:38:51;;;;;;;9.70;8.70;;;4.90;99.90;;;;;;5030155;28;20198;-59
2022/02/20 04:41:21;;;;;;;11.27;7.22;;;4.90;99.90;;;;;;5030181;28;20206;-59
2022/02/20 04:43:49;;;;;;;10.25;7.68;;;4.90;99.90;;;;;;5030391;28;20272;-59
2022/02/20 04:46:16;;;;;;;9.18;8.25;;;4.90;99.90;;;;;;5030050;28;20579;-59
2022/02/20 04:48:44;;;;;;;10.40;8.98;;;4.90;99.90;;;;;;5029809;28;20711;-60
2022/02/20 04:51:11;;;;;;;9.55;8.25;;;4.90;99.90;;;;;;5030026;28;20290;-59
2022/02/20 04:53:38;;;;;;;12.00;8.75;;;4.90;99.90;;;;;;5029891;28;20309;-59
2022/02/20 04:56:06;;;;;;;10.25;8.68;;;4.90;99.90;;;;;;5029629;28;20205;-59
2022/02/20 04:58:33;;;;;;;9.63;8.38;;;4.90;99.90;;;;;;5029521;28;20211;-59
2022/02/20 05:01:01;;;;;;;9.23;8.07;;;4.90;99.90;;;;;;5029415;28;20202;-58
2022/02/20 05:03:28;;;;;;;10.82;9.02;;;4.90;99.90;;;;;;5029558;28;20297;-58
2022/02/20 05:05:56;;;;;;;8.60;7.70;;;4.80;99.90;;;;;;5029434;28;20198;-58
2022/02/20 05:08:23;;;;;;;9.55;8.00;;;4.80;99.90;;;;;;5029610;28;20234;-58
2022/02/20 05:10:50;;;;;;;10.45;9.15;;;4.80;99.90;;;;;;5029601;28;20203;-58
2022/02/20 05:13:17;;;;;;;10.50;9.30;;;4.80;99.90;;;;;;5029489;28;20226;-58
2022/02/20 05:15:47;;;;;;;9.80;8.55;;;4.70;99.90;;;;;;5029486;28;20206;-59
2022/02/20 05:18:16;;;;;;;8.70;7.22;;;4.70;99.90;;;;;;5029509;28;20233;-59
2022/02/20 05:20:43;;;;;;;14.43;8.32;;;4.70;99.90;;;;;;5016013;28;20206;-59
2022/02/20 05:23:10;;;;;;;12.38;8.50;;;4.70;99.90;;;;;;5015778;28;20227;-59
2022/02/20 05:25:37;;;;;;;10.10;8.57;;;4.70;99.90;;;;;;5016076;28;20199;-59
2022/02/20 05:28:05;;;;;;;7.88;6.55;;;4.70;99.90;;;;;;5016124;28;20219;-58
2022/02/20 05:30:32;;;;;;;10.20;8.00;;;4.60;99.90;;;;;;5015917;28;20675;-59
2022/02/20 05:32:59;;;;;;;8.10;7.30;;;4.60;99.90;;;;;;5016274;28;20242;-59
2022/02/20 05:35:27;;;;;;;8.27;7.38;;;4.60;99.90;;;;;;5016020;28;20210;-59
2022/02/20 05:37:54;;;;;;;9.05;6.93;;;4.60;99.90;;;;;;5015884;28;20206;-59
2022/02/20 05:40:23;;;;;;;11.13;8.07;;;4.60;99.90;;;;;;5015834;28;20206;-59
2022/02/20 05:42:51;;;;;;;8.80;7.80;;;4.50;99.90;;;;;;5015445;28;20227;-58
2022/02/20 05:45:18;;;;;;;7.45;6.72;;;4.50;99.90;;;;;;5015726;28;20242;-59
2022/02/20 05:47:45;;;;;;;7.03;6.32;;;4.50;99.90;;;;;;5015408;28;20214;-59
2022/02/20 05:50:13;;;;;;;8.98;7.28;;;4.50;99.90;;;;;;5016320;28;20211;-59
2022/02/20 05:52:41;;;;;;;8.55;6.70;;;4.50;99.90;;;;;;5015341;28;20230;-59
2022/02/20 05:55:09;;;;;;;7.72;6.45;;;4.50;99.90;;;;;;5015572;28;20207;-59
2022/02/20 05:57:44;;;;;;;9.15;6.93;;;4.50;99.90;;;;;;5015302;28;20567;-59
2022/02/20 06:00:13;;;;;;;9.68;7.53;;;4.50;99.90;;;;;;5015498;28;20233;-59
2022/02/20 06:02:40;;;;;;;7.70;6.88;;;4.50;99.90;;;;;;5014993;28;20227;-59
2022/02/20 06:05:08;;;;;;;10.32;6.85;;;4.40;99.90;;;;;;5015417;28;20206;-59
2022/02/20 06:07:35;;;;;;;9.20;6.93;;;4.50;99.90;;;;;;5015457;28;20226;-59
2022/02/20 06:10:04;;;;;;;7.43;6.03;;;4.50;99.90;;;;;;5015452;28;20214;-59
2022/02/20 06:12:32;;;;;;;8.35;6.47;;;4.50;99.90;;;;;;5015177;28;20219;-59
2022/02/20 06:14:59;;;;;;;11.13;7.50;;;4.50;99.90;;;;;;5015639;28;20207;-59
2022/02/20 06:17:26;;;;;;;9.85;7.35;;;4.50;99.90;;;;;;5015496;28;20213;-59
2022/02/20 06:19:53;;;;;;;9.07;7.05;;;4.50;99.90;;;;;;5014769;28;20671;-59
2022/02/20 06:22:20;;;;;;;7.28;6.47;;;4.50;99.90;;;;;;5014548;28;20246;-57
2022/02/20 06:24:47;;;;;;;8.90;7.72;;;4.50;99.90;;;;;;5015311;28;20195;-57
2022/02/20 06:27:16;;;;;;;10.85;7.90;;;4.50;99.90;;;;;;5014906;28;20207;-57
2022/02/20 06:29:43;;;;;;;8.90;7.70;;;4.50;99.90;;;;;;5015113;28;20219;-59
2022/02/20 06:32:10;;;;;;;13.10;7.75;;;4.50;99.90;;;;;;5013828;28;20223;-57
2022/02/20 06:34:37;;;;;;;9.48;6.90;;;4.50;99.90;;;;;;5014584;28;20225;-57
2022/02/20 06:37:05;;;;;;;8.10;7.25;;;4.50;99.90;;;;;;5014434;28;20206;-59
2022/02/20 06:39:32;;;;;;;7.18;6.35;;;4.40;99.90;;;;;;5015534;28;20573;-58
2022/02/20 06:42:00;;;;;;;10.05;7.72;;;4.40;99.90;;;;;;5015162;28;20733;-58
2022/02/20 06:44:29;;;;;;;10.68;7.72;;;4.50;99.90;;;;;;5014519;28;20214;-58
2022/02/20 06:46:56;;;;;;;8.27;6.82;;;4.50;99.90;;;;;;5014819;28;20214;-58
2022/02/20 06:49:23;;;;;;;9.95;7.00;;;4.50;99.90;;;;;;5014635;28;20229;-58
2022/02/20 06:51:51;;;;;;;9.02;6.75;;;4.50;99.90;;;;;;5014442;28;20211;-59
2022/02/20 06:54:18;;;;;;;8.63;6.97;;;4.60;99.90;;;;;;5014278;28;20207;-58
2022/02/20 06:56:45;;;;;;;8.35;6.70;;;4.60;99.90;;;;;;5014463;28;20207;-57
2022/02/20 06:59:12;;;;;;;8.13;6.85;;;4.60;99.90;;;;;;5014123;28;20697;-57
2022/02/20 07:01:40;;;;;;;9.50;7.65;;;4.70;99.90;;;;;;5014350;28;20207;-58
2022/02/20 07:04:09;;;;;;;7.97;6.65;;;4.70;99.90;;;;;;5014151;28;20202;-58
2022/02/20 07:06:36;;;;;;;9.48;7.28;;;4.70;99.90;;;;;;5014268;28;20229;-58
2022/02/20 07:09:04;;;;;;;6.40;5.25;;;4.70;99.90;;;;;;5013837;28;20226;-58
2022/02/20 07:11:31;;;;;;;7.97;6.35;;;4.80;99.90;;;;;;5013859;28;20257;-58
2022/02/20 07:13:58;;;;;;;10.35;5.20;;;4.90;99.90;;;;;;5013711;28;20716;-58
2022/02/20 07:16:25;;;;;;;9.43;6.28;;;4.90;99.90;;;;;;5013836;28;20203;-58
2022/02/20 07:18:55;;;;;;;10.80;5.32;;;4.90;99.90;;;;;;5014113;28;20202;-58
2022/02/20 07:21:24;;;;;;;5.57;4.97;;;5.00;99.90;;;;;;5013979;28;20214;-57
2022/02/20 07:23:51;;;;;;;6.60;4.75;;;5.00;99.90;;;;;;5013920;28;20246;-58
2022/02/20 07:26:21;;;;;;;7.68;4.75;;;5.00;99.90;;;;;;5014025;28;20207;-58
2022/02/20 07:28:48;;;;;;;6.20;4.78;;;5.00;99.90;;;;;;5014183;28;20234;-58
2022/02/20 07:31:15;;;;;;;6.97;5.07;;;5.00;99.90;;;;;;5014136;28;20214;-58
2022/02/20 07:33:42;;;;;;;4.80;4.38;;;5.00;99.90;;;;;;5013776;28;20227;-58
2022/02/20 07:36:10;;;;;;;4.97;3.78;;;5.00;99.90;;;;;;5013920;28;20202;-58
2022/02/20 07:38:37;;;;;;;5.90;3.85;;;5.00;99.90;;;;;;5013883;28;20202;-58
2022/02/20 07:41:04;;;;;;;4.88;4.20;;;5.00;99.90;;;;;;5013911;28;20207;-58
2022/02/20 07:43:32;;;;;;;4.43;4.03;;;5.00;99.90;;;;;;5013277;28;20219;-58
2022/02/20 07:45:59;;;;;;;4.30;3.38;;;5.00;99.90;;;;;;5013484;28;20202;-58
2022/02/20 07:48:26;;;;;;;4.30;3.90;;;5.00;99.90;;;;;;5013757;28;20277;-58
2022/02/20 07:50:53;;;;;;;5.72;3.75;;;5.10;99.90;;;;;;5014108;28;20198;-58
2022/02/20 07:53:22;;;;;;;11.05;3.83;;;5.10;99.90;;;;;;5013753;28;20231;-58
2022/02/20 07:55:49;;;;;;;4.07;3.67;;;5.10;99.90;;;;;;5013614;28;20210;-58
2022/02/20 07:58:19;;;;;;;4.85;3.55;;;5.10;99.90;;;;;;5013451;28;20203;-58
2022/02/20 08:00:46;;;;;;;3.95;3.60;;;5.20;99.90;;;;;;5013875;28;20195;-58
2022/02/20 08:03:13;;;;;;;5.13;3.47;;;5.20;99.90;;;;;;5013900;28;20250;-58
2022/02/20 08:05:40;;;;;;;4.25;3.85;;;5.20;99.90;;;;;;5013759;28;20391;-58
2022/02/20 08:08:07;;;;;;;4.90;4.50;;;5.30;99.90;;;;;;5013420;28;20230;-57
2022/02/20 08:10:36;;;;;;;6.40;4.13;;;5.30;99.90;;;;;;5013782;28;20210;-58
2022/02/20 08:13:03;;;;;;;8.45;4.47;;;5.30;99.90;;;;;;5013603;28;20244;-58
2022/02/20 08:15:30;;;;;;;5.10;4.53;;;5.40;99.90;;;;;;5013647;28;20203;-57
2022/02/20 08:17:58;;;;;;;7.80;5.28;;;5.40;99.90;;;;;;5013677;28;20226;-58
2022/02/20 08:20:25;;;;;;;6.20;5.60;;;5.40;99.90;;;;;;5013627;28;20199;-58
2022/02/20 08:22:52;;;;;;;8.10;6.40;;;5.40;99.90;;;;;;5013127;28;20234;-58
2022/02/20 08:25:19;;;;;;;8.98;5.72;;;5.40;99.90;;;;;;5013717;28;20207;-58
2022/02/20 08:27:47;;;;;;;7.65;6.30;;;5.40;99.90;;;;;;5013221;28;20229;-58
2022/02/20 08:30:15;;;;;;;8.68;6.03;;;5.30;99.90;;;;;;5013164;28;20229;-58
2022/02/20 08:32:42;;;;;;;6.60;5.88;;;5.30;99.90;;;;;;5013208;28;20226;-58
2022/02/20 08:35:11;;;;;;;9.45;6.25;;;5.30;99.90;;;;;;5013279;28;20204;-58
2022/02/20 08:37:40;;;;;;;7.00;6.35;;;5.30;99.90;;;;;;5013839;28;20199;-59
2022/02/20 08:40:08;;;;;;;9.20;5.70;;;5.30;99.90;;;;;;5013942;28;20207;-58
2022/02/20 08:42:35;;;;;;;6.97;6.25;;;5.30;99.90;;;;;;5013610;28;20722;-59
2022/02/20 08:45:04;;;;;;;9.05;6.50;;;5.20;99.90;;;;;;5013854;28;20707;-59
2022/02/20 08:47:31;;;;;;;9.75;7.15;;;5.20;99.90;;;;;;5014577;28;20211;-59
2022/02/20 08:49:59;;;;;;;7.78;6.97;;;5.20;99.90;;;;;;5013893;28;20235;-59
2022/02/20 08:52:26;;;;;;;12.00;8.88;;;5.20;99.90;;;;;;5013742;28;20563;-58
2022/02/20 08:54:53;;;;;;;8.02;7.20;;;5.20;99.90;;;;;;5015244;28;20207;-58
2022/02/20 08:57:20;;;;;;;10.70;7.28;;;5.20;99.90;;;;;;5018013;28;20222;-58
2022/02/20 08:59:49;;;;;;;12.85;8.00;;;5.30;99.90;;;;;;5017566;28;20207;-59
2022/02/20 09:02:17;;;;;;;9.23;8.07;;;5.30;99.90;;;;;;5017234;28;20773;-59
2022/02/20 09:04:44;;;;;;;12.38;7.78;;;5.30;99.90;;;;;;5016856;28;20203;-58
2022/02/20 09:07:11;;;;;;;10.18;7.80;;;5.30;99.90;;;;;;5016617;28;20203;-59
2022/02/20 09:09:38;;;;;;;12.10;8.38;;;5.30;99.90;;;;;;5016858;28;20226;-59
2022/02/20 09:12:06;;;;;;;8.88;7.53;;;5.30;99.90;;;;;;5016915;28;20223;-58
2022/02/20 09:14:33;;;;;;;16.70;7.20;;;5.40;99.90;;;;;;5016615;28;20199;-59
2022/02/20 09:17:01;;;;;;;9.80;6.90;;;5.40;99.90;;;;;;5017116;28;20210;-59
2022/02/20 09:19:30;;;;;;;9.20;7.80;;;5.40;99.90;;;;;;5016882;28;20202;-59
2022/02/20 09:21:57;;;;;;;10.65;7.97;;;5.40;99.90;;;;;;5016153;28;20227;-59
2022/02/20 09:24:24;;;;;;;13.25;8.27;;;5.40;99.90;;;;;;5016254;28;20198;-59
2022/02/20 09:26:52;;;;;;;9.48;8.00;;;5.50;99.90;;;;;;5016246;28;20210;-58
2022/02/20 09:29:19;;;;;;;10.60;8.60;;;5.50;99.90;;;;;;5015854;28;20226;-60
2022/02/20 09:31:46;;;;;;;8.40;7.50;;;5.50;99.90;;;;;;5016101;28;20235;-57
2022/02/20 09:34:13;;;;;;;11.90;7.50;;;5.50;99.90;;;;;;5016061;28;20203;-59
2022/02/20 09:36:42;;;;;;;8.85;7.00;;;5.60;99.90;;;;;;5015801;28;20199;-59
2022/02/20 09:39:09;;;;;;;14.50;6.65;;;5.50;99.90;;;;;;5015771;28;20203;-59
2022/02/20 09:41:36;;;;;;;11.70;6.60;;;5.60;99.90;;;;;;5016953;28;20214;-60
2022/02/20 09:44:04;;;;;;;11.90;6.10;;;5.60;99.90;;;;;;5016050;28;20218;-60
2022/02/20 09:46:31;;;;;;;7.28;6.00;;;5.60;99.90;;;;;;5015761;28;20206;-59
2022/02/20 09:49:00;;;;;;;7.85;5.97;;;5.60;99.90;;;;;;5015509;28;20691;-59
2022/02/20 09:51:28;;;;;;;8.05;6.45;;;5.60;99.90;;;;;;5015690;28;20210;-59
2022/02/20 09:53:58;;;;;;;7.50;4.70;;;5.60;99.90;;;;;;5015750;28;20219;-60
2022/02/20 09:56:25;;;;;;;8.30;4.57;;;5.60;99.90;;;;;;5015293;28;20207;-60
2022/02/20 09:58:52;;;;;;;6.25;5.07;;;5.60;99.90;;;;;;5015792;28;20215;-60
2022/02/20 10:01:20;;;;;;;7.45;5.07;;;5.70;99.90;;;;;;5015794;28;20214;-60
2022/02/20 10:03:48;;;;;;;6.95;4.78;;;5.70;99.90;;;;;;5015430;28;20730;-59
2022/02/20 10:06:18;;;;;;;7.18;4.45;;;5.70;99.90;;;;;;5015289;28;20203;-60
2022/02/20 10:08:47;;;;;;;7.90;4.93;;;5.80;99.90;;;;;;5015398;28;20195;-60
2022/02/20 10:11:21;;;;;;;7.32;5.30;;;5.80;99.90;;;;;;5015446;28;20230;-60
2022/02/20 10:13:49;;;;;;;3.22;2.92;;;5.90;99.90;;;;;;5015101;28;20234;-60
2022/02/20 10:16:18;;;;;;;3.80;2.70;;;6.00;99.90;;;;;;5015256;28;20203;-60
2022/02/20 10:18:46;;;;;;;4.95;3.00;;;6.00;99.90;;;;;;5015325;28;20203;-60
2022/02/20 10:21:18;;;;;;;3.50;3.05;;;6.10;99.90;;;;;;5015368;28;20222;-59
2022/02/20 10:26:18;;;;;;;5.35;3.20;;;6.10;99.90;;;;;;5060627;22;20230;-58
2022/02/20 10:29:05;;;;;;;4.25;3.00;;;6.20;99.90;;;;;;5036626;28;20620;-57
2022/02/20 10:31:41;;;;;;;6.10;2.95;;;6.20;99.90;;;;;;5040198;28;20186;-55
2022/02/20 10:34:10;;;;;;;5.93;2.60;;;6.20;99.90;;;;;;5039197;28;20601;-57
2022/02/20 10:36:57;;;;;;;5.55;2.75;;;6.20;99.90;;;;;;5038268;28;20296;-60
2022/02/20 10:39:27;;;;;;;3.92;2.50;;;6.20;99.90;;;;;;5035370;28;20194;-62
2022/02/20 10:41:55;;;;;;;4.70;2.72;;;6.20;99.90;;;;;;5035321;28;20206;-59
2022/02/20 10:44:24;;;;;;;3.83;2.95;;;6.20;99.90;;;;;;5035603;28;20218;-60
2022/02/20 10:47:09;;;;;;;4.50;3.10;;;6.20;99.90;;;;;;5035742;28;20202;-60
2022/02/20 10:49:37;;;;;;;4.53;2.70;;;6.30;99.90;;;;;;5035868;28;20207;-59
2022/02/20 10:52:07;;;;;;;7.63;3.40;;;6.30;99.90;;;;;;5035240;28;20339;-61
2022/02/20 10:54:34;;;;;;;5.82;3.03;;;6.40;99.90;;;;;;5034926;28;20236;-60
2022/02/20 10:57:01;;;;;;;6.88;3.03;;;6.40;99.90;;;;;;5035310;28;20198;-60
2022/02/20 10:59:51;;;;;;;5.90;3.15;;;6.50;99.90;;;;;;5034593;28;20301;-61
2022/02/20 11:02:34;;;;;;;5.07;2.83;;;6.60;99.90;;;;;;5035856;28;20186;-59
2022/02/20 11:05:02;;;;;;;1.90;1.80;;;6.60;99.90;;;;;;5034564;28;20253;-61
2022/02/20 11:07:30;;;;;;;3.78;2.45;;;6.70;99.90;;;;;;5034497;28;20206;-60
2022/02/20 11:09:57;;;;;;;2.30;1.88;;;6.90;99.90;;;;;;5035487;28;20222;-61
2022/02/20 11:12:25;;;;;;;2.60;1.92;;;6.90;99.90;;;;;;5034225;28;20207;-60
2022/02/20 11:14:55;;;;;;;2.88;1.90;;;7.00;99.90;;;;;;5033828;28;20223;-60
2022/02/20 11:17:23;;;;;;;3.28;1.88;;;7.10;99.90;;;;;;5033273;28;20206;-62
2022/02/20 11:19:54;;;;;;;2.17;1.60;;;7.20;99.90;;;;;;5034068;28;20199;-60
2022/02/20 11:22:22;;;;;;;3.28;2.10;;;7.30;99.90;;;;;;5033890;28;20187;-61
2022/02/20 11:24:51;;;;;;;3.95;1.60;;;7.40;99.90;;;;;;5034695;28;20321;-61
2022/02/20 11:27:20;;;;;;;5.30;1.88;;;7.40;99.90;;;;;;5036137;28;20210;-61
2022/02/20 11:29:48;;;;;;;2.05;1.52;;;7.40;99.90;;;;;;5036002;28;20222;-62
2022/02/20 11:32:17;;;;;;;2.10;1.80;;;7.50;99.90;;;;;;5035320;28;20213;-60
2022/02/20 11:34:46;;;;;;;3.28;1.80;;;7.50;99.90;;;;;;5036536;28;20222;-62
2022/02/20 11:37:14;;;;;;;2.20;1.98;;;7.50;99.90;;;;;;5036324;28;20206;-61
2022/02/20 11:40:00;;;;;;;1.40;1.30;;;7.60;99.90;;;;;;5036711;28;20639;-62
2022/02/20 11:42:27;;;;;;;1.95;1.67;;;7.60;99.90;;;;;;5034297;28;20187;-62
2022/02/20 11:44:55;;;;;;;2.83;1.98;;;7.60;99.90;;;;;;5033759;28;20218;-62
2022/02/20 11:47:42;;;;;;;3.05;2.25;;;7.70;99.90;;;;;;5033975;28;20203;-61
2022/02/20 11:50:35;;;;;;;3.15;2.13;;;7.70;99.90;;;;;;5033794;28;20229;-61
2022/02/20 11:53:04;;;;;;;3.55;2.25;;;7.80;99.90;;;;;;5033736;28;20198;-59
2022/02/20 11:55:34;;;;;;;2.63;2.08;;;7.80;99.90;;;;;;5033519;28;20575;-61
2022/02/20 11:58:24;;;;;;;2.47;2.25;;;7.90;99.90;;;;;;5033401;28;20187;-63
2022/02/20 12:01:09;;;;;;;3.20;2.40;;;7.90;99.90;;;;;;5033418;28;20198;-62
2022/02/20 12:04:08;;;;;;;3.40;2.30;;;8.00;99.90;;;;;;5033133;28;20210;-62
2022/02/20 12:06:37;;;;;;;3.85;2.40;;;8.00;99.90;;;;;;5033411;28;20182;-63
2022/02/20 12:09:04;;;;;;;2.85;2.55;;;8.10;99.90;;;;;;5034043;28;20286;-61
2022/02/20 12:11:44;;;;;;;4.80;3.25;;;8.10;99.90;;;;;;5033499;28;20224;-61
2022/02/20 12:14:16;;;;;;;5.78;3.90;;;8.10;99.90;;;;;;5033254;28;20249;-61
2022/02/20 12:16:49;;;;;;;3.80;3.50;;;8.20;99.90;;;;;;5033241;28;20202;-62
2022/02/20 12:19:20;;;;;;;3.65;3.35;;;8.20;99.90;;;;;;5033460;28;20209;-59
2022/02/20 12:21:53;;;;;;;4.55;4.15;;;8.30;99.90;;;;;;5033210;28;20182;-61
2022/02/20 12:24:22;;;;;;;5.40;3.85;;;8.30;99.90;;;;;;5033037;28;20729;-61
2022/02/20 12:26:55;;;;;;;3.45;3.15;;;8.40;99.90;;;;;;5033231;28;20638;-61
2022/02/20 12:29:25;;;;;;;5.93;3.42;;;8.40;99.90;;;;;;5034208;28;20194;-62
2022/02/20 12:32:10;;;;;;;5.47;3.67;;;8.40;99.90;;;;;;5037276;28;20221;-61
2022/02/20 12:34:55;;;;;;;4.97;3.72;;;8.50;99.90;;;;;;5037411;28;20235;-60
2022/02/20 12:37:27;;;;;;;4.10;3.70;;;8.50;99.90;;;;;;5036927;28;20233;-62
2022/02/20 12:39:57;;;;;;;9.10;4.05;;;8.60;99.90;;;;;;5037257;28;20221;-61
2022/02/20 12:42:27;;;;;;;5.13;3.95;;;8.60;99.90;;;;;;5037325;28;20266;-61
2022/02/20 12:45:02;;;;;;;4.82;4.32;;;8.70;99.90;;;;;;5036846;28;20236;-60
2022/02/20 12:47:35;;;;;;;5.05;3.63;;;8.80;99.90;;;;;;5036999;28;20190;-61
2022/02/20 12:50:05;;;;;;;8.98;4.35;;;8.80;99.90;;;;;;5036557;28;20226;-62
2022/02/20 12:52:34;;;;;;;6.10;3.42;;;8.90;99.90;;;;;;5037454;28;20190;-62
2022/02/20 12:55:02;;;;;;;3.90;3.50;;;8.90;99.90;;;;;;5036983;28;20234;-62
2022/02/20 12:57:36;;;;;;;7.70;3.78;;;9.00;99.90;;;;;;5036971;28;20203;-62
2022/02/20 13:00:07;;;;;;;8.85;4.28;;;9.10;99.90;;;;;;5038285;28;20189;-61
2022/02/20 13:02:36;;;;;;;5.03;4.20;;;9.10;99.90;;;;;;5038606;28;20202;-61
2022/02/20 13:05:14;;;;;;;5.40;3.95;;;9.20;99.90;;;;;;5038687;28;20229;-62
2022/02/20 13:07:52;;;;;;;5.38;4.88;;;9.20;99.90;;;;;;5037387;28;20199;-61
2022/02/20 13:10:23;;;;;;;5.63;3.88;;;9.30;99.90;;;;;;5036976;28;20210;-61
2022/02/20 13:13:10;;;;;;;6.75;4.40;;;9.30;99.90;;;;;;5036918;28;20244;-60
2022/02/20 13:15:43;;;;;;;6.82;3.90;;;9.40;99.90;;;;;;5038413;28;20226;-61
2022/02/20 13:18:13;;;;;;;4.82;3.53;;;9.40;99.90;;;;;;5036561;28;20256;-61
2022/02/20 13:20:47;;;;;;;6.05;3.90;;;9.50;99.90;;;;;;5036126;28;20226;-60
2022/02/20 13:23:22;;;;;;;4.40;3.47;;;9.50;99.90;;;;;;5035749;28;20186;-61
2022/02/20 13:25:51;;;;;;;4.47;3.90;;;9.50;99.90;;;;;;5035922;28;20241;-62